Etusivu
METAR-TAF:

METAR-TAF

Lentoasemat :

Nîmes, Ranska

Leveyspiiri: 43-45N, Pituuspiiri: 004-25E, korkeus merenpinnasta: 94 m

Tämänhetkinen sää

Tämä raportti tehtiin 24 minuuttia sitten, kello 09.00 UTC
Tuuli 7 kn pohjoisen/luoteesta, vaihdellen lännen/luoteen ja pohjoisen/koillisen välillä
Lämpötila 9°C
Kosteus 61%
Ilmanpaine 1022 hPa
Näkyvyys 10 km tai enemmän
ei pilviä alle 1500 m:ssä eikä cumulonimbus-pilviä

METAR: LFTW 110900Z AUTO 34007KT 300V020 CAVOK 09/02 Q1022 NOSIG

Aika: 10:24 (09:24 UTC)

Sääennuste

Tämä raportti tehtiin 1 tunti ja 24 minuuttia sitten, kello 08.00 UTC
Ennuste voimassa 11. päivästä klo 09 UTC - 12. päivään klo 09 UTC
Tuuli 9 kn pohjoisen/luoteesta
Näkyvyys 10 km tai enemmän
ei pilviä alle 1500 m:ssä eikä cumulonimbus-pilviä
Tulossa
12. päivästä klo 07 UTC - 12. päivään klo 09 UTC
Hajonneita pilviä 2000 ft:n korkeudessa

TAF: LFTW 110800Z 1109/1209 34009KT CAVOK BECMG 1207/1209 BKN020

Säähavainnot ja -ennusteet yli 4000 lentoasemalta (METAR- ja TAF-raportit).

Käytössä olevat sääasemat on merkitty karttaan keltaisilla ja punaisilla pisteillä.

Aseta hiiri pisteen päälle nähdäksesi sääaseman nimen.

Klikkaa sitten nähdäksesi säähavainnot ja -ennusteet.

Kartan vaihtaminen: klikkaa mustalla rastilla varustettuja vihreitä pisteitä, niin voit zoomata sisään; viivalla varustettua vihreää pistettä, niin voit zoomata ulos tai vihreitä nuolia, niin pääset viereisille kartoille.


METAR-TAF: